Time;durP1;ratioP1;P1;durP2;ratioP2;P2;SDS_P1;SDS_P2;PMS_P1;PMS_P2;Temp;Humidity;BMP_temperature;BMP_pressure;BME280_temperature;BME280_humidity;BME280_pressure;Samples;Min_cycle;Max_cycle;Signal;HPM_P1;HPM_P2
2023/06/01 00:01:41;;;;;;;7.47;3.42;;;8.40;99.90;;;;;;5114097;28;20102;-78
2023/06/01 00:04:07;;;;;;;5.30;3.33;;;8.50;99.90;;;;;;5114253;28;20027;-79
2023/06/01 00:06:34;;;;;;;5.25;3.05;;;8.40;99.90;;;;;;5095892;28;20505;-78
2023/06/01 00:08:59;;;;;;;6.47;3.25;;;8.40;99.90;;;;;;5095701;28;20048;-78
2023/06/01 00:11:25;;;;;;;3.40;3.10;;;8.40;99.90;;;;;;5095876;28;20039;-78
2023/06/01 00:13:52;;;;;;;3.90;3.00;;;8.40;99.90;;;;;;5095830;28;20012;-78
2023/06/01 00:16:18;;;;;;;5.80;3.70;;;8.40;99.90;;;;;;5095845;28;20019;-80
2023/06/01 00:18:44;;;;;;;4.85;3.67;;;8.30;99.90;;;;;;5113539;28;20019;-79
2023/06/01 00:21:10;;;;;;;4.78;3.80;;;8.20;99.90;;;;;;5114003;28;20023;-78
2023/06/01 00:23:36;;;;;;;4.63;3.22;;;8.20;99.90;;;;;;5095578;28;20024;-79
2023/06/01 00:26:02;;;;;;;6.55;3.50;;;8.10;99.90;;;;;;5113915;28;20027;-78
2023/06/01 00:28:27;;;;;;;6.38;4.18;;;8.00;99.90;;;;;;5095499;28;20027;-78
2023/06/01 00:30:53;;;;;;;8.00;4.22;;;8.00;99.90;;;;;;5095524;28;20031;-78
2023/06/01 00:33:22;;;;;;;4.40;3.38;;;7.90;99.90;;;;;;5113772;28;20107;-79
2023/06/01 00:35:47;;;;;;;7.53;3.55;;;7.90;99.90;;;;;;5095671;28;20026;-79
2023/06/01 00:38:13;;;;;;;5.90;3.20;;;8.00;99.90;;;;;;5095442;28;20114;-79
2023/06/01 00:40:39;;;;;;;3.90;3.00;;;8.00;99.90;;;;;;5113787;28;20019;-81
2023/06/01 00:43:04;;;;;;;3.22;2.67;;;8.00;99.90;;;;;;5114021;28;20106;-79
2023/06/01 00:45:30;;;;;;;6.60;3.58;;;8.00;99.90;;;;;;5113852;28;20023;-80
2023/06/01 00:47:57;;;;;;;4.32;3.25;;;8.00;99.90;;;;;;5095318;28;20024;-79
2023/06/01 00:50:23;;;;;;;4.65;3.92;;;7.90;99.90;;;;;;5113745;28;20055;-80
2023/06/01 00:52:50;;;;;;;5.10;4.60;;;7.90;99.90;;;;;;5095310;28;20024;-81
2023/06/01 00:55:16;;;;;;;4.78;3.75;;;7.80;99.90;;;;;;5113597;28;20377;-79
2023/06/01 00:57:43;;;;;;;6.95;3.65;;;7.70;99.90;;;;;;5113414;28;20020;-79
2023/06/01 01:00:10;;;;;;;6.32;4.32;;;7.60;99.90;;;;;;5113545;28;20027;-79
2023/06/01 01:02:40;;;;;;;4.70;4.20;;;7.50;99.90;;;;;;5113402;28;20024;-79
2023/06/01 01:05:10;;;;;;;6.22;3.58;;;7.50;99.90;;;;;;5095370;28;20026;-81
2023/06/01 01:07:58;;;;;;;6.60;4.30;;;7.50;99.90;;;;;;5095243;28;20027;-79
2023/06/01 01:10:29;;;;;;;3.75;3.33;;;7.50;99.90;;;;;;5101530;28;20052;-79
2023/06/01 01:13:23;;;;;;;10.07;3.92;;;7.50;99.90;;;;;;5106463;28;20020;-78
2023/06/01 01:16:07;;;;;;;3.75;3.28;;;7.50;99.90;;;;;;5095197;28;20061;-78
2023/06/01 01:18:54;;;;;;;5.40;3.40;;;7.60;99.90;;;;;;5113457;28;20048;-79
2023/06/01 01:21:30;;;;;;;3.35;3.05;;;7.60;99.90;;;;;;5095376;28;20031;-78
2023/06/01 01:24:06;;;;;;;5.45;3.10;;;7.60;99.90;;;;;;5095139;28;20047;-78
2023/06/01 01:26:35;;;;;;;4.38;3.30;;;7.60;99.90;;;;;;5094987;28;20524;-78
2023/06/01 01:29:06;;;;;;;3.65;3.30;;;7.60;99.90;;;;;;5094911;28;20043;-78
2023/06/01 01:31:33;;;;;;;3.40;3.10;;;7.60;99.90;;;;;;5096547;28;20028;-78
2023/06/01 01:34:03;;;;;;;4.53;3.22;;;7.60;99.90;;;;;;5117277;28;20043;-79
2023/06/01 01:36:30;;;;;;;4.60;2.92;;;7.60;99.90;;;;;;5117095;28;20020;-81
2023/06/01 01:38:55;;;;;;;4.65;2.92;;;7.50;99.90;;;;;;5098910;28;20031;-77
2023/06/01 01:41:21;;;;;;;4.13;3.25;;;7.50;99.90;;;;;;5098590;28;20020;-81
2023/06/01 01:43:48;;;;;;;6.20;3.75;;;7.40;99.90;;;;;;5098702;28;20015;-81
2023/06/01 01:46:36;;;;;;;3.40;2.83;;;7.30;99.90;;;;;;5098638;28;20060;-80
2023/06/01 01:49:17;;;;;;;5.75;3.83;;;7.30;99.90;;;;;;5098621;28;20063;-78
2023/06/01 01:52:06;;;;;;;4.57;3.22;;;7.20;99.90;;;;;;5098538;28;20032;-78
2023/06/01 01:54:36;;;;;;;3.40;3.10;;;7.20;99.90;;;;;;5098415;28;20057;-78
2023/06/01 01:57:04;;;;;;;4.75;3.45;;;7.20;99.90;;;;;;5116727;28;20118;-78
2023/06/01 01:59:31;;;;;;;3.75;3.30;;;7.20;99.90;;;;;;5116666;28;20440;-80
2023/06/01 02:01:57;;;;;;;3.70;3.40;;;7.10;99.90;;;;;;5116584;28;20408;-79
2023/06/01 02:04:22;;;;;;;4.10;3.65;;;7.10;99.90;;;;;;5116776;28;20016;-79
2023/06/01 02:06:48;;;;;;;4.97;3.80;;;7.00;99.90;;;;;;5116423;28;20024;-79
2023/06/01 02:09:14;;;;;;;3.55;3.22;;;7.00;99.90;;;;;;5097803;28;20480;-79
2023/06/01 02:11:39;;;;;;;5.88;3.38;;;7.00;99.90;;;;;;5098092;28;20475;-78
2023/06/01 02:14:05;;;;;;;7.00;3.40;;;6.90;99.90;;;;;;5116416;28;20361;-78
2023/06/01 02:16:31;;;;;;;4.05;3.70;;;7.00;99.90;;;;;;5097940;28;20115;-80
2023/06/01 02:18:57;;;;;;;6.18;3.92;;;7.00;99.90;;;;;;5116251;28;20027;-80
2023/06/01 02:21:23;;;;;;;5.13;3.55;;;6.90;99.90;;;;;;5097922;28;20026;-78
2023/06/01 02:23:49;;;;;;;4.28;3.50;;;6.90;99.90;;;;;;5116067;28;20027;-80
2023/06/01 02:26:16;;;;;;;3.50;3.00;;;6.90;99.90;;;;;;5098025;28;20023;-80
2023/06/01 02:28:42;;;;;;;3.83;3.50;;;6.90;99.90;;;;;;5097771;28;20497;-78
2023/06/01 02:31:09;;;;;;;5.15;3.30;;;6.90;99.90;;;;;;5097746;28;20047;-78
2023/06/01 02:33:35;;;;;;;5.15;3.55;;;6.90;99.90;;;;;;5115908;28;20023;-80
2023/06/01 02:36:00;;;;;;;5.35;3.65;;;6.90;99.90;;;;;;5097638;28;20024;-78
2023/06/01 02:38:26;;;;;;;4.25;3.67;;;6.90;99.90;;;;;;5115771;28;20016;-81
2023/06/01 02:40:52;;;;;;;3.60;3.30;;;6.90;99.90;;;;;;5097557;28;20496;-80
2023/06/01 02:43:18;;;;;;;3.40;3.08;;;6.80;99.90;;;;;;5097110;28;20016;-80
2023/06/01 02:45:43;;;;;;;3.88;3.47;;;6.80;99.90;;;;;;5115729;28;20035;-77
2023/06/01 02:48:09;;;;;;;6.57;3.45;;;6.80;99.90;;;;;;5097357;28;20468;-77
2023/06/01 02:50:35;;;;;;;4.60;3.65;;;6.80;99.90;;;;;;5097140;28;20122;-80
2023/06/01 02:53:01;;;;;;;5.13;3.30;;;6.80;99.90;;;;;;5115685;28;20020;-77
2023/06/01 02:55:27;;;;;;;3.83;3.33;;;6.80;99.90;;;;;;5097178;28;20039;-79
2023/06/01 02:57:52;;;;;;;3.80;3.50;;;6.80;99.90;;;;;;5115489;28;20023;-77
2023/06/01 03:00:18;;;;;;;4.60;3.40;;;6.80;99.90;;;;;;5115530;28;20070;-81
2023/06/01 03:02:47;;;;;;;4.80;3.42;;;6.80;99.90;;;;;;5097042;28;20096;-81
2023/06/01 03:05:17;;;;;;;5.53;3.22;;;6.70;99.90;;;;;;5097046;28;20030;-77
2023/06/01 03:07:44;;;;;;;5.95;3.03;;;6.80;99.90;;;;;;5115220;28;20072;-81
2023/06/01 03:10:10;;;;;;;3.70;3.30;;;6.80;99.90;;;;;;5080676;28;20049;-77
2023/06/01 03:12:36;;;;;;;4.32;3.28;;;6.80;99.90;;;;;;5074471;28;20020;-77
2023/06/01 03:15:02;;;;;;;6.43;3.28;;;6.80;99.90;;;;;;5056626;28;20021;-80
2023/06/01 03:17:28;;;;;;;4.28;3.90;;;6.90;99.90;;;;;;5056434;28;20020;-77
2023/06/01 03:19:54;;;;;;;4.30;3.75;;;7.00;99.90;;;;;;5056311;28;20474;-77
2023/06/01 03:22:19;;;;;;;6.65;3.25;;;7.10;99.90;;;;;;5073996;28;20020;-80
2023/06/01 03:24:49;;;;;;;7.38;3.50;;;7.20;99.90;;;;;;5056357;28;20152;-81
2023/06/01 03:27:19;;;;;;;6.15;3.40;;;7.40;99.90;;;;;;5074309;28;20048;-81
2023/06/01 03:29:44;;;;;;;6.95;3.38;;;7.70;99.90;;;;;;5074039;28;20127;-78
2023/06/01 03:32:10;;;;;;;4.65;3.30;;;7.80;99.90;;;;;;5074127;28;20123;-78
2023/06/01 03:34:36;;;;;;;6.45;3.20;;;8.10;99.90;;;;;;5074147;28;20108;-78
2023/06/01 03:37:05;;;;;;;5.22;3.47;;;8.40;99.90;;;;;;5074022;28;20109;-82
2023/06/01 03:39:35;;;;;;;6.13;3.25;;;8.60;99.90;;;;;;5056131;28;20095;-81
2023/06/01 03:42:01;;;;;;;9.82;3.55;;;8.80;99.90;;;;;;5056220;28;20075;-78
2023/06/01 03:44:26;;;;;;;6.78;5.10;;;9.00;99.90;;;;;;5073963;28;20040;-78
2023/06/01 03:46:52;;;;;;;7.35;4.60;;;9.10;99.90;;;;;;5074040;28;20040;-78
2023/06/01 03:49:18;;;;;;;5.43;3.83;;;9.30;98.20;;;;;;5073750;28;20458;-78
2023/06/01 03:51:44;;;;;;;8.85;5.00;;;9.50;96.90;;;;;;5073663;28;20036;-78
2023/06/01 03:54:10;;;;;;;7.97;4.50;;;9.70;95.00;;;;;;5055317;28;20123;-82
2023/06/01 03:56:36;;;;;;;5.00;3.50;;;9.80;93.00;;;;;;5056026;28;20048;-82
2023/06/01 03:59:02;;;;;;;4.60;3.67;;;10.00;92.60;;;;;;5073845;28;20067;-79
2023/06/01 04:01:32;;;;;;;6.53;3.85;;;10.20;90.90;;;;;;5073550;28;20036;-78
2023/06/01 04:03:58;;;;;;;7.15;3.90;;;10.30;89.60;;;;;;5055137;28;20112;-78
2023/06/01 04:06:24;;;;;;;4.35;3.58;;;10.40;88.10;;;;;;5073447;28;20569;-82
2023/06/01 04:08:55;;;;;;;7.03;3.90;;;10.60;87.40;;;;;;5056578;28;20025;-78
2023/06/01 04:11:24;;;;;;;7.10;3.33;;;10.70;86.50;;;;;;5093690;28;20495;-82
2023/06/01 04:13:50;;;;;;;3.40;3.10;;;10.90;87.10;;;;;;5075512;28;20024;-78
2023/06/01 04:16:16;;;;;;;5.57;3.47;;;11.00;86.40;;;;;;5093718;28;20104;-78
2023/06/01 04:18:42;;;;;;;6.05;3.38;;;11.20;85.40;;;;;;5075373;28;20155;-82
2023/06/01 04:21:08;;;;;;;7.03;3.80;;;11.30;85.80;;;;;;5093703;28;20027;-84
2023/06/01 04:23:35;;;;;;;6.13;3.63;;;11.40;85.60;;;;;;5075343;28;20049;-79
2023/06/01 04:26:02;;;;;;;4.65;4.20;;;11.60;85.10;;;;;;5093549;28;20106;-79
2023/06/01 04:28:28;;;;;;;6.00;3.33;;;11.80;84.20;;;;;;5075279;28;20009;-83
2023/06/01 04:30:54;;;;;;;11.23;4.53;;;11.90;83.70;;;;;;5075303;28;20107;-79
2023/06/01 04:33:20;;;;;;;7.13;3.97;;;12.10;83.10;;;;;;5093433;28;20099;-79
2023/06/01 04:35:45;;;;;;;7.28;5.60;;;12.30;84.20;;;;;;5075465;28;20035;-79
2023/06/01 04:38:11;;;;;;;7.63;4.20;;;12.40;85.80;;;;;;5075257;28;20047;-82
2023/06/01 04:40:37;;;;;;;6.63;4.88;;;12.60;86.20;;;;;;5075535;28;20023;-79
2023/06/01 04:43:03;;;;;;;9.05;4.95;;;12.70;84.10;;;;;;5093147;28;20023;-82
2023/06/01 04:45:33;;;;;;;6.25;4.50;;;12.80;84.50;;;;;;5093182;28;20599;-82
2023/06/01 04:47:59;;;;;;;8.25;5.03;;;12.90;84.60;;;;;;5073882;28;20141;-82
2023/06/01 04:50:28;;;;;;;10.80;6.13;;;13.00;84.60;;;;;;5070242;28;20037;-79
2023/06/01 04:52:55;;;;;;;10.90;5.03;;;13.10;84.10;;;;;;5071577;28;20504;-79
2023/06/01 04:55:21;;;;;;;6.47;4.68;;;13.20;85.50;;;;;;5072926;28;20059;-78
2023/06/01 04:57:47;;;;;;;9.63;5.10;;;13.40;87.20;;;;;;5091574;28;20044;-78
2023/06/01 05:00:14;;;;;;;8.60;5.65;;;13.60;87.40;;;;;;5092474;28;20434;-78
2023/06/01 05:02:41;;;;;;;8.80;6.15;;;13.70;86.60;;;;;;5071470;28;20012;-83
2023/06/01 05:05:07;;;;;;;12.82;7.82;;;13.80;85.00;;;;;;5089795;28;20073;-84
2023/06/01 05:07:34;;;;;;;18.25;9.48;;;13.90;84.00;;;;;;5077729;28;20838;-84
2023/06/01 05:10:04;;;;;;;12.77;9.50;;;14.00;85.70;;;;;;5090690;28;20420;-79
2023/06/01 05:12:30;;;;;;;19.45;10.18;;;14.00;87.30;;;;;;5070568;28;20078;-79
2023/06/01 05:14:56;;;;;;;18.77;9.15;;;14.10;86.60;;;;;;5093771;28;20024;-83
2023/06/01 05:17:21;;;;;;;15.55;9.00;;;14.20;88.00;;;;;;5069664;28;20027;-79
2023/06/01 05:19:47;;;;;;;14.30;10.25;;;14.20;88.60;;;;;;5085834;28;20016;-79
2023/06/01 05:22:13;;;;;;;16.65;9.23;;;14.30;88.60;;;;;;5086118;28;20012;-82
2023/06/01 05:24:38;;;;;;;22.20;10.55;;;14.40;88.80;;;;;;5083689;28;20024;-82
2023/06/01 05:27:04;;;;;;;20.33;10.57;;;14.50;89.90;;;;;;5066098;28;20024;-81
2023/06/01 05:29:31;;;;;;;14.05;9.15;;;14.60;90.60;;;;;;5085737;28;20121;-80
2023/06/01 05:31:57;;;;;;;18.90;10.13;;;14.70;88.10;;;;;;5065651;28;20032;-82
2023/06/01 05:34:22;;;;;;;17.00;10.13;;;14.80;87.50;;;;;;5067262;28;20020;-80
2023/06/01 05:36:48;;;;;;;16.00;9.55;;;15.00;87.10;;;;;;5092573;28;20028;-79
2023/06/01 05:39:14;;;;;;;25.58;13.00;;;15.10;87.10;;;;;;5096698;28;20071;-81
2023/06/01 05:41:41;;;;;;;26.10;11.32;;;15.20;87.40;;;;;;5078642;28;20012;-82
2023/06/01 05:44:06;;;;;;;19.40;10.77;;;15.30;85.60;;;;;;5085887;28;20032;-78
2023/06/01 05:46:32;;;;;;;26.48;13.05;;;15.40;84.60;;;;;;5067217;28;20029;-82
2023/06/01 05:48:58;;;;;;;25.55;11.68;;;15.60;84.40;;;;;;5087006;28;20047;-81
2023/06/01 05:51:23;;;;;;;20.05;11.73;;;15.70;83.30;;;;;;5062974;28;20040;-79
2023/06/01 05:53:49;;;;;;;29.38;13.40;;;15.80;81.90;;;;;;5063515;28;20063;-81
2023/06/01 05:56:16;;;;;;;27.92;14.63;;;16.00;83.30;;;;;;5065443;28;20020;-80
2023/06/01 05:58:43;;;;;;;31.42;15.30;;;16.10;83.10;;;;;;5076001;28;20521;-80
2023/06/01 06:01:09;;;;;;;28.65;14.73;;;16.30;82.00;;;;;;5075700;28;20021;-82
2023/06/01 06:03:36;;;;;;;21.98;12.05;;;16.30;81.40;;;;;;5059694;28;20021;-80
2023/06/01 06:06:02;;;;;;;25.30;13.50;;;16.50;79.80;;;;;;5057850;28;20418;-81
2023/06/01 06:08:28;;;;;;;34.33;13.35;;;16.60;77.20;;;;;;5075540;28;20386;-82
2023/06/01 06:10:53;;;;;;;27.33;14.15;;;16.80;76.90;;;;;;5075158;28;20052;-80
2023/06/01 06:13:19;;;;;;;24.27;13.27;;;17.00;75.60;;;;;;5073880;28;20024;-82
2023/06/01 06:15:45;;;;;;;18.80;11.02;;;17.20;75.20;;;;;;5073850;28;20099;-82
2023/06/01 06:18:11;;;;;;;17.65;10.60;;;17.30;74.50;;;;;;5084171;28;20488;-80
2023/06/01 06:20:36;;;;;;;31.45;14.15;;;17.40;73.10;;;;;;5092561;28;20504;-79
2023/06/01 06:23:02;;;;;;;31.38;14.40;;;17.50;71.50;;;;;;5090380;28;20078;-80
2023/06/01 06:25:27;;;;;;;29.05;14.52;;;17.60;69.20;;;;;;5075534;28;20031;-82
2023/06/01 06:27:53;;;;;;;25.75;11.25;;;17.80;68.20;;;;;;5070010;28;20051;-79
2023/06/01 06:30:19;;;;;;;34.33;16.60;;;17.90;69.00;;;;;;5063714;28;20064;-79
2023/06/01 06:32:47;;;;;;;40.17;19.08;;;18.10;67.80;;;;;;5084679;28;20042;-79
2023/06/01 06:35:13;;;;;;;30.95;13.80;;;18.20;65.80;;;;;;5075137;28;20024;-79
2023/06/01 06:37:43;;;;;;;16.88;8.80;;;18.40;67.10;;;;;;5093156;28;20491;-79
2023/06/01 06:40:09;;;;;;;27.98;13.25;;;18.50;65.00;;;;;;5075553;28;20024;-79
2023/06/01 06:42:35;;;;;;;21.85;10.73;;;18.70;61.40;;;;;;5094952;28;20020;-79
2023/06/01 06:45:02;;;;;;;12.95;8.57;;;18.70;61.70;;;;;;5091330;28;20116;-80
2023/06/01 06:47:27;;;;;;;16.58;8.43;;;18.90;63.10;;;;;;5074072;28;20071;-80
2023/06/01 06:49:53;;;;;;;16.08;8.68;;;19.10;61.60;;;;;;5094539;28;20036;-82
2023/06/01 06:52:19;;;;;;;14.90;7.78;;;19.20;59.20;;;;;;5076752;28;20110;-82
2023/06/01 06:54:45;;;;;;;11.85;8.27;;;19.40;59.20;;;;;;5094844;28;20031;-81
2023/06/01 06:57:11;;;;;;;17.92;8.18;;;19.50;60.20;;;;;;5076689;28;20154;-82
2023/06/01 06:59:36;;;;;;;12.75;8.77;;;19.70;59.50;;;;;;5076041;28;20066;-80
2023/06/01 07:02:03;;;;;;;20.58;11.00;;;19.80;58.70;;;;;;5093521;28;20099;-80
2023/06/01 07:04:29;;;;;;;26.05;9.73;;;20.00;59.30;;;;;;5075553;28;20028;-83
2023/06/01 07:06:55;;;;;;;20.63;9.18;;;20.20;57.50;;;;;;5093727;28;20157;-81
2023/06/01 07:09:21;;;;;;;19.00;7.35;;;20.30;56.70;;;;;;5076048;28;20139;-81
2023/06/01 07:11:47;;;;;;;17.52;8.85;;;20.40;56.00;;;;;;5093741;28;20101;-81
2023/06/01 07:14:13;;;;;;;26.02;11.18;;;20.60;55.60;;;;;;5094527;28;20095;-83
2023/06/01 07:16:39;;;;;;;19.65;9.68;;;20.70;56.00;;;;;;5094781;28;20035;-80
2023/06/01 07:19:05;;;;;;;20.08;7.85;;;20.80;55.30;;;;;;5094034;28;20021;-81
2023/06/01 07:21:30;;;;;;;22.90;11.02;;;21.00;54.20;;;;;;5094357;28;20024;-81
2023/06/01 07:23:56;;;;;;;21.80;10.23;;;21.10;54.10;;;;;;5094401;28;20012;-82
2023/06/01 07:26:25;;;;;;;14.18;7.93;;;21.30;54.80;;;;;;5094487;28;20422;-81
2023/06/01 07:28:52;;;;;;;32.03;14.10;;;21.50;53.30;;;;;;5092697;28;20023;-81
2023/06/01 07:31:19;;;;;;;25.90;9.93;;;21.40;50.70;;;;;;5074938;28;20028;-81
2023/06/01 07:33:45;;;;;;;20.25;10.13;;;21.40;49.40;;;;;;5075189;28;20020;-81
2023/06/01 07:36:12;;;;;;;27.55;13.25;;;21.50;51.10;;;;;;5075305;28;20354;-79
2023/06/01 07:38:37;;;;;;;32.83;14.23;;;21.60;51.10;;;;;;5093375;28;20024;-80
2023/06/01 07:41:03;;;;;;;18.58;8.32;;;21.70;50.30;;;;;;5075192;28;20367;-80
2023/06/01 07:43:29;;;;;;;17.42;9.48;;;21.90;49.30;;;;;;5075623;28;20538;-80
2023/06/01 07:45:55;;;;;;;21.40;9.40;;;21.90;49.20;;;;;;5094339;28;20485;-80
2023/06/01 07:48:21;;;;;;;14.10;6.63;;;21.90;48.30;;;;;;5094342;28;20027;-80
2023/06/01 07:50:46;;;;;;;12.68;6.68;;;22.10;49.90;;;;;;5094299;28;20036;-80
2023/06/01 07:53:13;;;;;;;14.15;6.13;;;22.20;49.70;;;;;;5094238;28;20385;-80
2023/06/01 07:55:38;;;;;;;22.05;10.07;;;22.40;48.60;;;;;;5076905;28;20021;-79
2023/06/01 07:58:05;;;;;;;11.13;6.45;;;22.40;49.40;;;;;;5094095;28;20039;-80
2023/06/01 08:00:31;;;;;;;19.00;7.40;;;22.50;49.50;;;;;;5094116;28;20020;-80
2023/06/01 08:02:58;;;;;;;44.05;19.58;;;22.60;46.90;;;;;;5075733;28;20482;-80
2023/06/01 08:05:24;;;;;;;13.63;5.60;;;22.80;46.70;;;;;;5075918;28;20389;-80
2023/06/01 08:07:50;;;;;;;14.02;6.90;;;22.60;47.20;;;;;;5075668;28;20024;-80
2023/06/01 08:10:16;;;;;;;9.68;5.05;;;22.60;46.50;;;;;;5093698;28;20558;-80
2023/06/01 08:12:42;;;;;;;9.52;3.95;;;22.60;46.90;;;;;;5093763;28;20137;-80
2023/06/01 08:15:10;;;;;;;10.32;4.22;;;22.70;47.10;;;;;;5094070;28;20028;-80
2023/06/01 08:17:37;;;;;;;11.70;4.82;;;22.60;44.90;;;;;;5075589;28;20031;-80
2023/06/01 08:20:09;;;;;;;19.17;6.03;;;22.60;46.50;;;;;;5093855;28;20020;-80
2023/06/01 08:22:35;;;;;;;11.13;5.25;;;22.80;46.10;;;;;;5059968;28;20493;-80
2023/06/01 08:25:00;;;;;;;15.02;6.75;;;22.90;45.30;;;;;;5093767;28;20066;-80
2023/06/01 08:27:27;;;;;;;16.70;6.43;;;22.70;45.50;;;;;;5075513;28;20472;-80
2023/06/01 08:29:53;;;;;;;9.10;6.03;;;22.50;46.50;;;;;;5075456;28;20024;-80
2023/06/01 08:32:19;;;;;;;7.53;3.33;;;22.60;46.50;;;;;;5076238;28;20027;-80
2023/06/01 08:34:46;;;;;;;8.00;3.92;;;22.70;44.50;;;;;;5093720;28;20032;-80
2023/06/01 08:37:13;;;;;;;7.32;3.30;;;22.90;44.90;;;;;;5075437;28;20020;-80
2023/06/01 08:39:39;;;;;;;18.10;4.03;;;23.20;44.90;;;;;;5075003;28;20024;-80
2023/06/01 08:42:28;;;;;;;9.57;3.40;;;23.10;44.30;;;;;;5075204;28;20107;-80
2023/06/01 08:44:57;;;;;;;4.18;2.65;;;23.30;45.00;;;;;;5083034;28;20138;-80
2023/06/01 08:47:27;;;;;;;5.85;3.05;;;23.30;44.00;;;;;;5075556;28;20075;-80
2023/06/01 08:49:53;;;;;;;5.93;2.58;;;23.40;43.00;;;;;;5093430;28;20032;-80
2023/06/01 08:52:21;;;;;;;5.60;2.88;;;23.60;44.00;;;;;;5091956;28;20078;-80
2023/06/01 08:54:47;;;;;;;8.70;2.75;;;23.60;43.10;;;;;;5093302;28;20473;-80
2023/06/01 08:57:13;;;;;;;5.93;2.85;;;23.70;43.40;;;;;;5093184;28;20095;-80
2023/06/01 08:59:39;;;;;;;7.85;2.83;;;23.50;42.10;;;;;;5075229;28;20050;-80
2023/06/01 09:02:05;;;;;;;5.55;3.03;;;23.60;43.40;;;;;;5093270;28;20024;-80
2023/06/01 09:04:35;;;;;;;5.78;2.45;;;23.60;43.10;;;;;;5093341;28;20028;-81
2023/06/01 09:07:01;;;;;;;4.85;2.80;;;23.70;42.40;;;;;;5075048;28;20093;-80
2023/06/01 09:09:27;;;;;;;6.13;3.10;;;23.70;41.40;;;;;;5074865;28;20043;-80
2023/06/01 09:12:40;;;;;;;4.85;2.88;;;23.50;42.20;;;;;;5075060;28;20547;-80
2023/06/01 09:15:12;;;;;;;3.35;2.80;;;23.80;43.10;;;;;;5091308;28;20031;-80
2023/06/01 09:17:39;;;;;;;3.90;2.55;;;23.80;42.60;;;;;;5093175;28;20042;-80
2023/06/01 09:20:06;;;;;;;3.70;2.25;;;23.80;41.80;;;;;;5092939;28;20078;-80
2023/06/01 09:22:42;;;;;;;5.47;2.60;;;23.90;41.30;;;;;;5074808;28;20048;-80
2023/06/01 09:25:08;;;;;;;5.90;3.00;;;23.70;37.20;;;;;;5093153;28;20024;-80
2023/06/01 09:27:46;;;;;;;9.57;3.20;;;24.00;39.50;;;;;;5074884;28;20397;-80
2023/06/01 09:30:13;;;;;;;6.80;3.45;;;24.10;41.30;;;;;;5092977;28;20389;-80
2023/06/01 09:32:39;;;;;;;7.82;3.38;;;24.30;41.40;;;;;;5093127;28;20028;-80
2023/06/01 09:35:07;;;;;;;5.20;3.28;;;24.60;42.60;;;;;;5093063;28;20024;-80
2023/06/01 09:37:34;;;;;;;5.13;3.55;;;24.40;40.20;;;;;;5074718;28;20016;-80
2023/06/01 09:40:00;;;;;;;4.45;3.22;;;24.20;39.60;;;;;;5074777;28;20020;-80
2023/06/01 09:42:33;;;;;;;6.13;3.50;;;24.30;39.80;;;;;;5074816;28;20035;-80
2023/06/01 09:45:37;;;;;;;7.80;3.72;;;24.20;38.40;;;;;;5092862;28;20032;-80
2023/06/01 09:48:18;;;;;;;8.45;4.63;;;24.30;38.30;;;;;;5010920;28;20109;-80
2023/06/01 09:50:44;;;;;;;7.07;3.38;;;24.50;39.20;;;;;;5086035;28;20044;-80
2023/06/01 09:53:10;;;;;;;7.57;4.00;;;24.40;36.90;;;;;;5077045;28;20028;-80
2023/06/01 09:55:36;;;;;;;10.25;4.45;;;24.50;38.30;;;;;;5078482;28;20031;-80
2023/06/01 09:58:21;;;;;;;26.08;8.48;;;24.70;38.90;;;;;;5096585;28;20024;-80
2023/06/01 10:00:49;;;;;;;26.42;6.90;;;24.80;40.50;;;;;;5096396;28;20070;-80
2023/06/01 10:03:16;;;;;;;10.32;6.03;;;24.90;41.30;;;;;;5078176;28;20020;-80
2023/06/01 10:05:46;;;;;;;10.93;4.18;;;24.80;39.70;;;;;;5096305;28;20020;-80
2023/06/01 10:08:13;;;;;;;10.38;4.45;;;24.90;40.50;;;;;;5078187;28;20024;-80
2023/06/01 10:10:41;;;;;;;26.77;4.75;;;24.80;38.80;;;;;;5095985;28;20178;-80
2023/06/01 10:13:06;;;;;;;9.38;4.57;;;24.30;38.10;;;;;;5077890;28;20059;-80
2023/06/01 10:15:33;;;;;;;9.85;4.70;;;24.40;39.00;;;;;;5077968;28;20066;-80
2023/06/01 10:18:00;;;;;;;6.07;4.38;;;24.40;37.70;;;;;;5077823;28;20492;-80
2023/06/01 10:20:26;;;;;;;8.52;4.20;;;24.60;37.90;;;;;;5096090;28;20016;-80
2023/06/01 10:22:52;;;;;;;8.10;4.35;;;24.80;36.00;;;;;;5077805;28;20027;-80
2023/06/01 10:25:23;;;;;;;9.02;4.38;;;24.80;37.30;;;;;;5095829;28;20048;-80
2023/06/01 10:28:15;;;;;;;7.90;4.22;;;24.60;38.30;;;;;;5095616;28;20027;-81
2023/06/01 10:30:41;;;;;;;;;;;24.70;39.20;;;;;;5074851;28;20048;-81
2023/06/01 10:33:07;;;;;;;13.18;4.47;;;24.70;38.70;;;;;;5068051;28;20353;-79
2023/06/01 10:35:41;;;;;;;7.28;4.35;;;24.50;39.40;;;;;;5085017;28;20485;-79
2023/06/01 10:38:09;;;;;;;8.65;4.25;;;24.30;38.40;;;;;;5084863;28;20039;-78
2023/06/01 10:40:45;;;;;;;11.70;4.20;;;24.30;39.50;;;;;;5066544;28;20123;-79
2023/06/01 10:43:35;;;;;;;8.55;4.80;;;24.60;38.90;;;;;;5083972;28;20016;-79
2023/06/01 10:46:01;;;;;;;7.20;3.97;;;24.90;38.70;;;;;;5084900;28;20020;-80
2023/06/01 10:48:53;;;;;;;10.27;3.42;;;25.00;37.80;;;;;;5094602;28;20381;-80
2023/06/01 10:51:20;;;;;;;10.02;3.28;;;24.80;36.00;;;;;;5084598;28;20090;-80
2023/06/01 10:53:46;;;;;;;12.68;3.72;;;24.80;38.10;;;;;;5083248;28;20083;-80
2023/06/01 10:56:21;;;;;;;4.80;3.08;;;24.90;38.40;;;;;;5084888;28;20020;-81
2023/06/01 10:59:08;;;;;;;9.52;3.20;;;24.90;38.50;;;;;;5067019;28;20020;-79
2023/06/01 11:01:35;;;;;;;7.93;3.72;;;25.20;39.70;;;;;;5072892;28;20067;-79
2023/06/01 11:04:01;;;;;;;8.48;3.40;;;25.30;39.00;;;;;;5084879;28;20367;-79
2023/06/01 11:06:33;;;;;;;9.82;3.78;;;25.20;37.30;;;;;;5056896;28;20025;-80
2023/06/01 11:09:05;;;;;;;;;;;25.40;39.20;;;;;;5089503;28;20020;-81
2023/06/01 11:11:58;;;;;;;6.80;3.47;;;25.50;37.90;;;;;;5095043;28;19965;-79
2023/06/01 11:14:30;;;;;;;7.32;3.25;;;25.10;36.20;;;;;;5074333;28;20068;-79
2023/06/01 11:17:26;;;;;;;8.20;3.67;;;25.00;35.60;;;;;;5076478;28;20122;-79
2023/06/01 11:20:01;;;;;;;6.60;3.30;;;25.00;37.20;;;;;;5085569;28;20027;-80
2023/06/01 11:22:35;;;;;;;7.90;3.65;;;25.10;38.30;;;;;;5064907;28;20013;-79
2023/06/01 11:25:07;;;;;;;7.45;3.75;;;25.30;38.50;;;;;;5074451;28;20386;-79
2023/06/01 11:27:33;;;;;;;8.35;3.53;;;25.20;37.70;;;;;;5079551;28;20020;-81
2023/06/01 11:29:59;;;;;;;8.73;2.97;;;25.30;37.60;;;;;;5066599;28;20029;-80
2023/06/01 11:32:27;;;;;;;5.25;2.95;;;25.50;37.80;;;;;;5076756;28;20013;-80
2023/06/01 11:34:53;;;;;;;9.63;3.28;;;25.60;37.70;;;;;;5074270;28;20044;-80
2023/06/01 11:37:19;;;;;;;4.88;2.72;;;25.60;37.50;;;;;;5074255;28;20024;-80
2023/06/01 11:39:47;;;;;;;9.05;3.10;;;25.80;36.70;;;;;;5056305;28;20058;-80
2023/06/01 11:42:20;;;;;;;6.40;2.90;;;25.70;35.50;;;;;;5074134;28;20020;-80
2023/06/01 11:44:57;;;;;;;15.57;4.57;;;26.00;37.90;;;;;;5056284;28;20540;-80
2023/06/01 11:47:22;;;;;;;9.32;3.92;;;26.20;37.10;;;;;;5056065;28;20021;-80
2023/06/01 11:49:50;;;;;;;8.13;3.35;;;26.30;36.10;;;;;;5073882;28;20398;-80
2023/06/01 11:52:19;;;;;;;6.35;4.18;;;26.30;35.90;;;;;;5073971;28;20025;-80
2023/06/01 11:54:46;;;;;;;10.38;4.03;;;26.50;36.10;;;;;;5074299;28;20099;-80
2023/06/01 11:57:12;;;;;;;11.25;4.68;;;26.50;34.60;;;;;;5055736;28;20021;-80
2023/06/01 11:59:39;;;;;;;8.93;3.22;;;26.60;34.80;;;;;;5073761;28;20021;-80
2023/06/01 12:02:26;;;;;;;4.63;2.67;;;26.30;33.70;;;;;;5055699;28;20020;-80
2023/06/01 12:05:01;;;;;;;7.75;3.50;;;25.90;33.30;;;;;;5073828;28;20078;-80
2023/06/01 12:07:27;;;;;;;10.95;3.78;;;25.80;33.40;;;;;;5055897;28;20108;-80
2023/06/01 12:09:54;;;;;;;10.32;4.72;;;25.70;33.60;;;;;;5073412;28;20087;-81
2023/06/01 12:12:24;;;;;;;8.20;3.35;;;25.70;34.10;;;;;;5073593;28;20047;-81
2023/06/01 12:14:51;;;;;;;13.57;3.10;;;25.70;33.40;;;;;;5055011;28;20060;-81
2023/06/01 12:17:17;;;;;;;6.30;2.95;;;25.70;34.80;;;;;;5055251;28;20107;-81
2023/06/01 12:19:47;;;;;;;4.78;3.03;;;25.70;34.70;;;;;;5093142;28;20016;-81
2023/06/01 12:22:13;;;;;;;3.05;2.72;;;25.40;34.00;;;;;;5075072;28;20027;-81
2023/06/01 12:24:40;;;;;;;6.32;3.00;;;25.50;33.70;;;;;;5074524;28;20030;-81
2023/06/01 12:27:14;;;;;;;9.60;3.15;;;25.80;35.40;;;;;;5075133;28;20107;-80
2023/06/01 12:29:42;;;;;;;4.30;2.92;;;25.90;34.80;;;;;;5083485;28;20024;-82
2023/06/01 12:32:09;;;;;;;8.27;3.78;;;25.90;35.20;;;;;;5071738;28;20075;-82
2023/06/01 12:34:39;;;;;;;8.82;4.07;;;26.00;36.40;;;;;;5071898;28;20025;-79
2023/06/01 12:37:15;;;;;;;9.23;3.40;;;26.20;36.10;;;;;;5069561;28;20453;-79
2023/06/01 12:39:41;;;;;;;4.88;2.70;;;25.90;34.70;;;;;;5090496;28;20028;-78
2023/06/01 12:42:09;;;;;;;5.32;2.80;;;25.80;34.80;;;;;;5091140;28;20397;-78
2023/06/01 12:44:36;;;;;;;6.47;3.45;;;25.90;35.30;;;;;;5074131;28;20016;-78
2023/06/01 12:47:02;;;;;;;10.95;4.05;;;26.20;36.00;;;;;;5091513;28;20054;-79
2023/06/01 12:49:28;;;;;;;19.42;5.30;;;26.20;35.00;;;;;;5074350;28;20099;-80
2023/06/01 12:51:54;;;;;;;6.68;3.42;;;26.30;34.30;;;;;;5091383;28;20562;-79